Time;durP1;ratioP1;P1;durP2;ratioP2;P2;SDS_P1;SDS_P2;PMS_P1;PMS_P2;Temp;Humidity;BMP_temperature;BMP_pressure;BME280_temperature;BME280_humidity;BME280_pressure;Samples;Min_cycle;Max_cycle;Signal;HPM_P1;HPM_P2
2023/10/30 00:00:39;;;;;;;1999.90;999.90;;;;;;;9.76;100.00;93823.97;5008273;28;20207;-54
2023/10/30 00:03:04;;;;;;;1999.90;999.90;;;;;;;9.71;100.00;93816.34;5008133;28;20211;-54
2023/10/30 00:05:30;;;;;;;1999.90;999.90;;;;;;;9.69;100.00;93801.63;5008249;28;20253;-54
2023/10/30 00:07:55;;;;;;;1999.90;999.90;;;;;;;9.67;100.00;93791.16;5008346;28;20249;-52
2023/10/30 00:10:21;;;;;;;1999.90;999.90;;;;;;;9.60;100.00;93783.22;5008015;28;20259;-53
2023/10/30 00:12:46;;;;;;;1999.90;999.90;;;;;;;9.55;100.00;93775.56;5008112;28;20177;-50
2023/10/30 00:15:12;;;;;;;1999.90;999.90;;;;;;;9.54;100.00;93773.25;5007892;28;20195;-53
2023/10/30 00:17:37;;;;;;;1999.90;999.90;;;;;;;9.50;100.00;93767.94;5007525;28;20184;-51
2023/10/30 00:20:04;;;;;;;1999.90;999.90;;;;;;;9.46;100.00;93767.28;5007667;28;20226;-55
2023/10/30 00:22:29;;;;;;;1999.90;999.90;;;;;;;9.37;100.00;93750.81;5006894;28;20221;-47
2023/10/30 00:24:55;;;;;;;1999.90;999.90;;;;;;;9.27;100.00;93746.47;5007514;28;20413;-51
2023/10/30 00:27:20;;;;;;;1999.90;999.90;;;;;;;9.19;100.00;93730.78;5007069;28;20231;-48
2023/10/30 00:29:45;;;;;;;1999.90;999.90;;;;;;;9.08;100.00;93714.75;5007454;28;20207;-48
2023/10/30 00:32:11;;;;;;;1999.90;999.90;;;;;;;9.03;100.00;93714.53;5007422;28;20234;-57
2023/10/30 00:34:36;;;;;;;1999.90;999.90;;;;;;;8.98;100.00;93718.56;5007110;28;20195;-55
2023/10/30 00:37:02;;;;;;;1999.90;999.90;;;;;;;8.95;100.00;93711.25;5007608;28;20344;-53
2023/10/30 00:39:31;;;;;;;1999.90;999.90;;;;;;;8.92;100.00;93703.94;5008052;28;20237;-52
2023/10/30 00:41:58;;;;;;;1999.90;999.90;;;;;;;8.88;100.00;93700.56;5007327;28;20219;-49
2023/10/30 00:44:23;;;;;;;1999.90;999.90;;;;;;;8.87;100.00;93693.59;5007783;28;20203;-54
2023/10/30 00:46:51;;;;;;;1999.90;999.90;;;;;;;8.85;100.00;93685.09;5007763;28;20177;-53
2023/10/30 00:49:17;;;;;;;1999.90;999.90;;;;;;;8.81;100.00;93678.22;5007231;28;20171;-55
2023/10/30 00:51:42;;;;;;;1999.90;999.90;;;;;;;8.78;100.00;93679.84;5007666;28;20182;-55
2023/10/30 00:54:07;;;;;;;1999.90;999.90;;;;;;;8.73;100.00;93672.25;5007293;28;20359;-54
2023/10/30 00:56:33;;;;;;;1999.90;999.90;;;;;;;8.67;100.00;93671.25;5007116;28;20176;-53
2023/10/30 00:58:58;;;;;;;1999.90;999.90;;;;;;;8.63;100.00;93656.97;5007567;28;20234;-54
2023/10/30 01:01:25;;;;;;;1999.90;999.90;;;;;;;8.62;100.00;93655.47;5007579;28;20163;-54
2023/10/30 01:03:50;;;;;;;1999.90;999.90;;;;;;;8.61;100.00;93647.72;5006916;28;20195;-55
2023/10/30 01:06:15;;;;;;;1999.90;999.90;;;;;;;8.56;100.00;93651.00;5007159;28;20179;-53
2023/10/30 01:08:41;;;;;;;1999.90;999.90;;;;;;;8.53;100.00;93644.44;5007596;28;20175;-54
2023/10/30 01:11:06;;;;;;;1999.90;999.90;;;;;;;8.49;100.00;93634.88;5007066;28;20195;-54
2023/10/30 01:13:32;;;;;;;1999.90;999.90;;;;;;;8.44;100.00;93627.25;5007074;28;20168;-55
2023/10/30 01:15:58;;;;;;;1999.90;999.90;;;;;;;8.40;100.00;93616.47;5007552;28;20175;-54
2023/10/30 01:18:23;;;;;;;1999.90;999.90;;;;;;;8.40;100.00;93611.03;5007080;28;20172;-51
2023/10/30 01:20:49;;;;;;;1999.90;999.90;;;;;;;8.42;100.00;93607.88;5007553;28;20242;-54
2023/10/30 01:23:15;;;;;;;1999.90;999.90;;;;;;;8.38;100.00;93602.53;5007448;28;20199;-54
2023/10/30 01:25:40;;;;;;;1999.90;999.90;;;;;;;8.30;100.00;93601.22;5006992;28;20172;-54
2023/10/30 01:28:06;;;;;;;1999.90;999.90;;;;;;;8.26;100.00;93599.78;5007441;28;20371;-54
2023/10/30 01:30:31;;;;;;;1999.90;999.90;;;;;;;8.20;100.00;93599.53;5007397;28;20218;-54
2023/10/30 01:32:56;;;;;;;1999.90;999.90;;;;;;;8.15;100.00;93594.63;5009390;28;20168;-55
2023/10/30 01:35:22;;;;;;;1999.90;999.90;;;;;;;8.14;100.00;93598.56;5010366;28;20163;-54
2023/10/30 01:37:47;;;;;;;1999.90;999.90;;;;;;;8.10;100.00;93592.47;5010148;28;20231;-55
2023/10/30 01:40:14;;;;;;;1999.90;999.90;;;;;;;8.09;100.00;93585.47;5010009;28;20222;-53
2023/10/30 01:42:39;;;;;;;1999.90;999.90;;;;;;;8.09;100.00;93580.03;5010247;28;20191;-55
2023/10/30 01:45:05;;;;;;;1999.90;999.90;;;;;;;8.05;100.00;93573.19;5010181;28;20171;-52
2023/10/30 01:47:31;;;;;;;1999.90;999.90;;;;;;;8.01;100.00;93562.41;5010097;28;20170;-54
2023/10/30 01:49:57;;;;;;;1999.90;999.90;;;;;;;7.95;100.00;93566.88;5010207;28;20168;-55
2023/10/30 01:52:23;;;;;;;1999.90;999.90;;;;;;;7.93;100.00;93577.41;5010057;28;20194;-52
2023/10/30 01:54:50;;;;;;;1999.90;999.90;;;;;;;7.90;100.00;93572.81;5010087;28;20173;-53
2023/10/30 01:57:18;;;;;;;1999.90;999.90;;;;;;;7.87;100.00;93565.53;5010084;28;20195;-55
2023/10/30 01:59:45;;;;;;;1999.90;999.90;;;;;;;7.85;100.00;93557.06;5010572;28;20222;-54
2023/10/30 02:02:11;;;;;;;1999.90;999.90;;;;;;;7.81;100.00;93550.97;5010042;28;20183;-51
2023/10/30 02:04:36;;;;;;;1999.90;999.90;;;;;;;7.77;100.00;93542.16;5009873;28;20174;-54
2023/10/30 02:07:03;;;;;;;1999.90;999.90;;;;;;;7.76;100.00;93546.03;5010412;28;20239;-54
2023/10/30 02:09:29;;;;;;;1999.90;999.90;;;;;;;7.72;100.00;93544.63;5010575;28;20190;-53
2023/10/30 02:11:56;;;;;;;1999.90;999.90;;;;;;;7.72;100.00;93539.94;5009769;28;20170;-53
2023/10/30 02:14:21;;;;;;;1999.90;999.90;;;;;;;7.71;100.00;93535.72;5010192;28;20174;-53
2023/10/30 02:16:46;;;;;;;1999.90;999.90;;;;;;;7.72;100.00;93539.19;5010404;28;20164;-53
2023/10/30 02:19:21;;;;;;;1999.90;999.90;;;;;;;7.66;100.00;93530.03;5010083;28;20191;-52
2023/10/30 02:21:47;;;;;;;1999.90;999.90;;;;;;;7.63;100.00;93536.31;5010036;28;20391;-54
2023/10/30 02:24:12;;;;;;;1999.90;999.90;;;;;;;7.61;100.00;93530.56;5010109;28;20172;-55
2023/10/30 02:26:38;;;;;;;1999.90;999.90;;;;;;;7.56;100.00;93525.66;5009909;28;20453;-52
2023/10/30 02:29:04;;;;;;;1999.90;999.90;;;;;;;7.55;100.00;93546.63;5010017;28;20191;-53
2023/10/30 02:31:30;;;;;;;1999.90;999.90;;;;;;;7.54;100.00;93544.34;5009856;28;20175;-55
2023/10/30 02:33:55;;;;;;;1999.90;999.90;;;;;;;7.56;100.00;93526.44;5009330;28;20283;-53
2023/10/30 02:36:21;;;;;;;1999.90;999.90;;;;;;;7.54;100.00;93534.22;5009821;28;20167;-54
2023/10/30 02:38:46;;;;;;;1999.90;999.90;;;;;;;7.54;100.00;93522.63;5009248;28;20271;-53
2023/10/30 02:41:12;;;;;;;1999.90;999.90;;;;;;;7.54;100.00;93534.22;5009028;28;20230;-55
2023/10/30 02:43:37;;;;;;;1999.90;999.90;;;;;;;7.54;100.00;93525.34;5008203;28;20199;-54
2023/10/30 02:46:05;;;;;;;1999.90;999.90;;;;;;;7.52;100.00;93530.41;5009701;28;20167;-53
2023/10/30 02:48:31;;;;;;;1999.90;999.90;;;;;;;7.47;100.00;93534.41;5009591;28;20263;-52
2023/10/30 02:50:59;;;;;;;1999.90;999.90;;;;;;;7.45;100.00;93536.81;5009329;28;20167;-51
2023/10/30 02:53:24;;;;;;;1999.90;999.90;;;;;;;7.42;100.00;93537.66;5009396;28;20167;-54
2023/10/30 02:55:50;;;;;;;1999.90;999.90;;;;;;;7.41;100.00;93536.16;5008970;28;20179;-52
2023/10/30 02:58:15;;;;;;;1999.90;999.90;;;;;;;7.42;100.00;93534.19;5009520;28;20163;-52
2023/10/30 03:00:40;;;;;;;1999.90;999.90;;;;;;;7.44;100.00;93538.00;5008661;28;20207;-54
2023/10/30 03:03:06;;;;;;;1999.90;999.90;;;;;;;7.42;100.00;93534.94;5009281;28;20209;-53
2023/10/30 03:05:31;;;;;;;1999.90;999.90;;;;;;;7.42;100.00;93543.09;5008744;28;20175;-54
2023/10/30 03:07:56;;;;;;;1999.90;999.90;;;;;;;7.41;100.00;93552.44;5008706;28;20175;-54
2023/10/30 03:10:22;;;;;;;1999.90;999.90;;;;;;;7.40;100.00;93545.50;5008966;28;20172;-54
2023/10/30 03:12:48;;;;;;;1999.90;999.90;;;;;;;7.38;100.00;93542.44;5009175;28;20170;-56
2023/10/30 03:15:14;;;;;;;1999.90;999.90;;;;;;;7.39;100.00;93549.38;5008554;28;20367;-55
2023/10/30 03:17:39;;;;;;;1999.90;999.90;;;;;;;7.39;100.00;93554.06;5008644;28;20172;-51
2023/10/30 03:20:08;;;;;;;1999.90;999.90;;;;;;;7.40;100.00;93548.19;5008512;28;20169;-53
2023/10/30 03:22:33;;;;;;;1999.90;999.90;;;;;;;7.38;100.00;93547.09;5008326;28;20250;-53
2023/10/30 03:24:59;;;;;;;1999.90;999.90;;;;;;;7.35;100.00;93532.41;5008916;28;20250;-52
2023/10/30 03:27:24;;;;;;;1999.90;999.90;;;;;;;7.37;100.00;93532.75;5008958;28;20163;-54
2023/10/30 03:29:50;;;;;;;1999.90;999.90;;;;;;;7.38;100.00;93528.84;5008384;28;20231;-53
2023/10/30 03:32:15;;;;;;;1999.90;999.90;;;;;;;7.41;100.00;93541.56;5008303;28;20167;-54
2023/10/30 03:34:41;;;;;;;1999.90;999.90;;;;;;;7.41;100.00;93547.00;5008113;28;20183;-54
2023/10/30 03:37:08;;;;;;;1999.90;999.90;;;;;;;7.40;100.00;93556.34;5008404;28;20164;-49
2023/10/30 03:39:33;;;;;;;1999.90;999.90;;;;;;;7.42;100.00;93543.09;5008018;28;20195;-54
2023/10/30 03:41:58;;;;;;;1999.90;999.90;;;;;;;7.48;100.00;93537.91;5007966;28;20243;-53
2023/10/30 03:44:26;;;;;;;1999.90;999.90;;;;;;;7.48;100.00;93546.81;5008566;28;20183;-53
2023/10/30 03:46:52;;;;;;;1999.90;999.90;;;;;;;7.47;100.00;93550.69;5008440;28;20238;-54
2023/10/30 03:49:17;;;;;;;1999.90;999.90;;;;;;;7.46;100.00;93548.44;5008301;28;20168;-52
2023/10/30 03:51:42;;;;;;;1999.90;999.90;;;;;;;7.48;100.00;93546.81;5007950;28;20178;-52
2023/10/30 03:54:08;;;;;;;1999.90;999.90;;;;;;;7.48;100.00;93546.81;5008307;28;20336;-54
2023/10/30 03:56:34;;;;;;;1999.90;999.90;;;;;;;7.49;100.00;93547.56;5007651;28;20242;-53
2023/10/30 03:58:59;;;;;;;1999.90;999.90;;;;;;;7.46;100.00;93549.19;5007830;28;20174;-52
2023/10/30 04:01:24;;;;;;;1999.90;999.90;;;;;;;7.47;100.00;93545.28;5008550;28;20163;-54
2023/10/30 04:03:50;;;;;;;1999.90;999.90;;;;;;;7.45;100.00;93550.38;5007723;28;20199;-54
2023/10/30 04:06:15;;;;;;;1999.90;999.90;;;;;;;7.46;100.00;93554.63;5007777;28;20167;-55
2023/10/30 04:08:41;;;;;;;1999.90;999.90;;;;;;;7.47;100.00;93550.69;5007756;28;20178;-54
2023/10/30 04:11:12;;;;;;;1999.90;999.90;;;;;;;7.47;100.00;93552.69;5008411;28;20163;-53
2023/10/30 04:13:37;;;;;;;1999.90;999.90;;;;;;;7.47;100.00;93545.28;5007585;28;20219;-54
2023/10/30 04:16:03;;;;;;;1999.90;999.90;;;;;;;7.52;100.00;93558.34;5007632;28;20230;-50
2023/10/30 04:18:28;;;;;;;1999.90;999.90;;;;;;;7.52;100.00;93552.91;5008301;28;20167;-53
2023/10/30 04:20:54;;;;;;;1999.90;999.90;;;;;;;7.52;100.00;93552.91;5008300;28;20212;-54
2023/10/30 04:23:19;;;;;;;1999.90;999.90;;;;;;;7.50;100.00;93558.00;5008292;28;20195;-55
2023/10/30 04:25:44;;;;;;;1999.90;999.90;;;;;;;7.50;100.00;93546.41;5007444;28;20375;-55
2023/10/30 04:28:10;;;;;;;1999.90;999.90;;;;;;;7.49;100.00;93542.91;5007614;28;20167;-54
2023/10/30 04:30:35;;;;;;;1999.90;999.90;;;;;;;7.58;100.00;93529.47;5007464;28;20190;-51
2023/10/30 04:33:01;;;;;;;1999.90;999.90;;;;;;;7.63;100.00;93518.09;5007762;28;20163;-54
2023/10/30 04:35:26;;;;;;;1999.90;999.90;;;;;;;7.66;100.00;93519.16;5007880;28;20163;-54
2023/10/30 04:37:53;;;;;;;1999.90;999.90;;;;;;;7.68;100.00;93512.13;5007478;28;20163;-47
2023/10/30 04:40:19;;;;;;;1999.90;999.90;;;;;;;7.74;100.00;93515.84;5007145;28;20225;-48
2023/10/30 04:42:44;;;;;;;1999.90;999.90;;;;;;;7.73;100.00;93514.31;5007912;28;20230;-50
2023/10/30 04:45:09;;;;;;;1999.90;999.90;;;;;;;7.67;100.00;93524.19;5007311;28;20174;-53
2023/10/30 04:47:35;;;;;;;1999.90;999.90;;;;;;;7.66;100.00;93530.81;5007347;28;20167;-54
2023/10/30 04:50:01;;;;;;;1999.90;999.90;;;;;;;7.61;100.00;93523.16;5007391;28;20222;-53
2023/10/30 04:52:26;;;;;;;1999.90;999.90;;;;;;;7.54;100.00;93523.34;5007817;28;20186;-54
2023/10/30 04:54:51;;;;;;;1999.90;999.90;;;;;;;7.53;100.00;93513.69;5006927;28;20170;-53
2023/10/30 04:57:17;;;;;;;1999.90;999.90;;;;;;;7.52;100.00;93536.63;5007153;28;20172;-54
2023/10/30 04:59:42;;;;;;;1999.90;999.90;;;;;;;7.43;100.00;93516.72;5007383;28;20202;-59
2023/10/30 05:02:08;;;;;;;1999.90;999.90;;;;;;;7.45;100.00;93519.75;5007592;28;20194;-54
2023/10/30 05:04:33;;;;;;;1999.90;999.90;;;;;;;7.50;100.00;93500.97;5007928;28;20239;-54
2023/10/30 05:06:59;;;;;;;1999.90;999.90;;;;;;;7.51;100.00;93497.09;5007861;28;20168;-51
2023/10/30 05:09:24;;;;;;;1999.90;999.90;;;;;;;7.51;100.00;93499.81;5011046;28;20377;-54
2023/10/30 05:11:49;;;;;;;1999.90;999.90;;;;;;;7.51;100.00;93504.47;5011315;28;20250;-52
2023/10/30 05:14:15;;;;;;;1999.90;999.90;;;;;;;7.53;100.00;93500.13;5010993;28;20174;-53
2023/10/30 05:16:40;;;;;;;1999.90;999.90;;;;;;;7.52;100.00;93487.75;5011434;28;20168;-53
2023/10/30 05:19:06;;;;;;;1999.90;999.90;;;;;;;7.53;100.00;93478.41;5011170;28;20163;-51
2023/10/30 05:21:31;;;;;;;1999.90;999.90;;;;;;;7.55;100.00;93478.75;5010735;28;20190;-53
2023/10/30 05:23:57;;;;;;;1999.90;999.90;;;;;;;7.55;100.00;93475.25;5010717;28;20163;-54
2023/10/30 05:26:22;;;;;;;1999.90;999.90;;;;;;;7.56;100.00;93469.38;5010716;28;20218;-55
2023/10/30 05:28:47;;;;;;;1999.90;999.90;;;;;;;7.60;100.00;93472.00;5010559;28;20361;-50
2023/10/30 05:31:13;;;;;;;1999.90;999.90;;;;;;;7.62;100.00;93470.41;5010975;28;20163;-54
2023/10/30 05:33:38;;;;;;;1999.90;999.90;;;;;;;7.62;100.00;93475.81;5011041;28;20217;-54
2023/10/30 05:36:04;;;;;;;1999.90;999.90;;;;;;;7.63;100.00;93460.28;5010924;28;20321;-53
2023/10/30 05:38:30;;;;;;;1999.90;999.90;;;;;;;7.62;100.00;93470.41;5010773;28;20298;-53
2023/10/30 05:40:55;;;;;;;1999.90;999.90;;;;;;;7.61;100.00;93460.69;5010262;28;20219;-52
2023/10/30 05:43:21;;;;;;;1999.90;999.90;;;;;;;7.61;100.00;93449.84;5010078;28;20195;-54
2023/10/30 05:45:47;;;;;;;1999.90;999.90;;;;;;;7.67;100.00;93445.41;5010142;28;20175;-53
2023/10/30 05:48:13;;;;;;;1999.90;999.90;;;;;;;7.62;100.00;93443.22;5010204;28;20170;-55
2023/10/30 05:50:38;;;;;;;1999.90;999.90;;;;;;;7.54;100.00;93431.03;5010425;28;20167;-55
2023/10/30 05:53:04;;;;;;;1999.90;999.90;;;;;;;7.50;100.00;93451.34;5010171;28;20214;-55
2023/10/30 05:55:29;;;;;;;1999.90;999.90;;;;;;;7.49;100.00;93450.56;5010318;28;20168;-53
2023/10/30 05:57:55;;;;;;;1999.90;999.90;;;;;;;7.47;100.00;93452.94;5009720;28;20163;-53
2023/10/30 06:00:22;;;;;;;1999.90;999.90;;;;;;;7.46;100.00;93454.16;5010345;28;20270;-54
2023/10/30 06:02:48;;;;;;;1999.90;999.90;;;;;;;7.45;100.00;93458.06;5010236;28;20202;-55
2023/10/30 06:05:14;;;;;;;1999.90;999.90;;;;;;;7.44;100.00;93470.13;5010391;28;20238;-53
2023/10/30 06:07:41;;;;;;;1999.90;999.90;;;;;;;7.45;100.00;93460.00;5010541;28;20175;-50
2023/10/30 06:10:09;;;;;;;1999.90;999.90;;;;;;;7.44;100.00;93456.56;5010060;28;20237;-54
2023/10/30 06:12:34;;;;;;;1999.90;999.90;;;;;;;7.42;100.00;93456.22;5010129;28;20242;-54
2023/10/30 06:15:00;;;;;;;1999.90;999.90;;;;;;;7.41;100.00;93464.78;5009625;28;20163;-54
2023/10/30 06:17:25;;;;;;;1999.90;999.90;;;;;;;7.40;100.00;93464.03;5010135;28;20167;-52
2023/10/30 06:19:50;;;;;;;1999.90;999.90;;;;;;;7.40;100.00;93458.59;5009598;28;20167;-55
2023/10/30 06:22:16;;;;;;;1999.90;999.90;;;;;;;7.38;100.00;93477.25;5009452;28;20191;-53
2023/10/30 06:24:41;;;;;;;1999.90;999.90;;;;;;;7.41;100.00;93472.91;5009547;28;20163;-54
2023/10/30 06:27:06;;;;;;;1999.90;999.90;;;;;;;7.42;100.00;93464.34;5009506;28;20214;-54
2023/10/30 06:29:32;;;;;;;1999.90;999.90;;;;;;;7.46;100.00;93480.56;5009943;28;20163;-55
2023/10/30 06:31:58;;;;;;;1999.90;999.90;;;;;;;7.53;100.00;93472.97;5009977;28;20213;-56
2023/10/30 06:34:23;;;;;;;1999.90;999.90;;;;;;;7.57;100.00;93473.63;5009420;28;20170;-54
2023/10/30 06:36:49;;;;;;;1999.90;999.90;;;;;;;7.79;100.00;93466.38;5009307;28;20168;-54
2023/10/30 06:39:19;;;;;;;1999.90;999.90;;;;;;;8.49;100.00;93453.38;5009132;28;20225;-56
2023/10/30 06:41:45;;;;;;;1999.90;999.90;;;;;;;9.61;100.00;93435.91;5008872;28;20211;-56
2023/10/30 06:44:10;;;;;;;1999.90;999.90;;;;;;;10.70;100.00;93414.59;5009044;28;20164;-56
2023/10/30 06:46:36;;;;;;;1999.90;999.90;;;;;;;11.77;100.00;93424.78;5009558;28;20169;-56
2023/10/30 06:49:01;;;;;;;1999.90;999.90;;;;;;;12.57;100.00;93608.47;5009395;28;20198;-56
2023/10/30 06:51:27;;;;;;;1999.90;999.90;;;;;;;13.08;100.00;93921.69;5009463;28;20217;-55
2023/10/30 06:53:52;;;;;;;1999.90;999.90;;;;;;;13.98;100.00;94140.50;5009441;28;20249;-56
2023/10/30 06:56:18;;;;;;;1999.90;999.90;;;;;;;15.51;100.00;94253.16;5008632;28;20442;-55
2023/10/30 06:58:43;;;;;;;1999.90;999.90;;;;;;;15.85;100.00;94311.31;5008712;28;20178;-54
2023/10/30 07:01:09;;;;;;;1999.90;999.90;;;;;;;15.87;100.00;94333.66;5009097;28;20172;-57
2023/10/30 07:03:34;;;;;;;1999.90;999.90;;;;;;;15.89;100.00;94341.47;5008663;28;20195;-56
2023/10/30 07:06:00;;;;;;;1999.90;999.90;;;;;;;15.72;100.00;94338.28;5008739;28;20175;-57
2023/10/30 07:08:26;;;;;;;1999.90;999.90;;;;;;;15.58;100.00;94349.16;5008624;28;20187;-58
2023/10/30 07:10:51;;;;;;;1999.90;999.90;;;;;;;15.26;100.00;94334.03;5008778;28;20175;-56
2023/10/30 07:13:17;;;;;;;1999.90;999.90;;;;;;;15.12;100.00;94348.38;5008493;28;20251;-57
2023/10/30 07:15:43;;;;;;;1999.90;999.90;;;;;;;14.56;100.00;94358.97;5008392;28;20178;-58
2023/10/30 07:18:08;;;;;;;1999.90;999.90;;;;;;;14.50;100.00;94360.03;5008843;28;20221;-54
2023/10/30 07:20:33;;;;;;;1999.90;999.90;;;;;;;14.67;100.00;94351.06;5009179;28;20163;-57
2023/10/30 07:22:59;;;;;;;1999.90;999.90;;;;;;;14.61;100.00;94358.38;5008490;28;20207;-56
2023/10/30 07:25:24;;;;;;;1999.90;999.90;;;;;;;14.90;100.00;94352.50;5008363;28;20218;-57
2023/10/30 07:27:49;;;;;;;1999.90;999.90;;;;;;;15.12;100.00;94348.38;5008299;28;20179;-56
2023/10/30 07:30:15;;;;;;;1999.90;999.90;;;;;;;15.51;100.00;94342.00;5008373;28;20187;-57
2023/10/30 07:32:40;;;;;;;1999.90;999.90;;;;;;;15.79;100.00;94346.25;5008624;28;20179;-59
2023/10/30 07:35:06;;;;;;;1999.90;999.90;;;;;;;15.59;100.00;94340.44;5008419;28;20178;-57
2023/10/30 07:37:34;;;;;;;1999.90;999.90;;;;;;;15.50;100.00;94336.94;5008105;28;20171;-54
2023/10/30 07:39:59;;;;;;;1999.90;999.90;;;;;;;15.00;100.00;94340.25;5007834;28;20195;-58
2023/10/30 07:42:24;;;;;;;1999.90;999.90;;;;;;;14.72;100.00;94322.97;5008218;28;20198;-56
2023/10/30 07:44:50;;;;;;;1999.90;999.90;;;;;;;14.53;100.00;94321.41;5008236;28;20202;-56
2023/10/30 07:47:15;;;;;;;1999.90;999.90;;;;;;;14.49;100.00;94320.06;5007999;28;20175;-55
2023/10/30 07:49:40;;;;;;;1999.90;999.90;;;;;;;14.58;100.00;94318.09;5008554;28;20196;-55
2023/10/30 07:52:06;;;;;;;1999.90;999.90;;;;;;;15.00;100.00;94310.78;5007881;28;20175;-56
2023/10/30 07:54:32;;;;;;;1999.90;999.90;;;;;;;15.01;100.00;94322.56;5007885;28;20175;-57
2023/10/30 07:56:57;;;;;;;1999.90;999.90;;;;;;;15.23;100.00;94307.44;5007727;28;20367;-57
2023/10/30 07:59:22;;;;;;;1999.90;999.90;;;;;;;15.62;100.00;94316.72;5008719;28;20364;-54
2023/10/30 08:01:50;;;;;;;1999.90;999.90;;;;;;;15.83;100.00;94304.75;5007655;28;20175;-55
2023/10/30 08:04:16;;;;;;;1999.90;999.90;;;;;;;16.32;100.00;94297.69;5007875;28;20175;-57
2023/10/30 08:06:41;;;;;;;1999.90;999.90;;;;;;;16.21;100.00;94299.44;5007626;28;20172;-54
2023/10/30 08:09:08;;;;;;;1999.90;999.90;;;;;;;15.96;100.00;94297.09;5007840;28;20178;-57
2023/10/30 08:11:34;;;;;;;1999.90;999.90;;;;;;;16.22;100.00;94301.72;5008050;28;20333;-59
2023/10/30 08:14:00;;;;;;;1999.90;999.90;;;;;;;16.11;100.00;94303.47;5008369;28;20182;-59
2023/10/30 08:16:26;;;;;;;1999.90;999.90;;;;;;;16.08;100.00;94291.38;5007601;28;20179;-57
2023/10/30 08:18:51;;;;;;;1999.90;999.90;;;;;;;16.67;100.00;94288.97;5007607;28;20195;-56
2023/10/30 08:21:16;;;;;;;1999.90;999.90;;;;;;;16.20;100.00;94300.66;5007597;28;20209;-57
2023/10/30 08:23:42;;;;;;;1999.90;999.90;;;;;;;16.80;100.00;94297.75;5007980;28;20257;-56
2023/10/30 08:26:07;;;;;;;1999.90;999.90;;;;;;;16.42;100.00;94293.69;5007541;28;20194;-55
2023/10/30 08:28:34;;;;;;;1999.90;999.90;;;;;;;15.54;100.00;94294.28;5007513;28;20178;-56
2023/10/30 08:30:59;;;;;;;1999.90;999.90;;;;;;;16.67;100.00;94283.47;5007464;28;20175;-57
2023/10/30 08:33:25;;;;;;;1999.90;999.90;;;;;;;16.58;100.00;94292.53;5008028;28;20171;-56
2023/10/30 08:35:50;;;;;;;1999.90;999.90;;;;;;;16.86;100.00;94284.84;5008064;28;20234;-52
2023/10/30 08:38:16;;;;;;;1999.90;999.90;;;;;;;17.06;100.00;94271.22;5007226;28;20242;-54
2023/10/30 08:40:41;;;;;;;1999.90;999.90;;;;;;;17.03;100.00;94288.69;5007274;28;20318;-55
2023/10/30 08:43:07;;;;;;;1999.90;999.90;;;;;;;16.42;100.00;94281.91;5009881;28;20203;-57
2023/10/30 08:45:32;;;;;;;1999.90;999.90;;;;;;;16.39;100.00;94282.78;5011288;28;20171;-57
2023/10/30 08:47:57;;;;;;;1999.90;999.90;;;;;;;16.55;100.00;94281.69;5011313;28;20171;-55
2023/10/30 08:50:23;;;;;;;1999.90;999.90;;;;;;;16.78;100.00;94284.44;5011267;28;20175;-57
2023/10/30 08:52:48;;;;;;;1999.90;999.90;;;;;;;16.90;100.00;94290.97;5011261;28;20172;-57
2023/10/30 08:55:14;;;;;;;1999.90;999.90;;;;;;;16.30;100.00;94289.16;5011626;28;20178;-57
2023/10/30 08:57:39;;;;;;;1999.90;999.90;;;;;;;16.57;100.00;94281.97;5011253;28;20178;-57
2023/10/30 09:00:08;;;;;;;1999.90;999.90;;;;;;;16.63;100.00;94282.84;5011580;28;20175;-56
2023/10/30 09:02:34;;;;;;;1999.90;999.90;;;;;;;16.80;100.00;94281.22;5010932;28;20191;-54
2023/10/30 09:04:59;;;;;;;1999.90;999.90;;;;;;;16.52;100.00;94283.38;5010722;28;20181;-54
2023/10/30 09:07:25;;;;;;;1999.90;999.90;;;;;;;16.63;100.00;94274.56;5011694;28;20175;-54
2023/10/30 09:09:51;;;;;;;1999.90;999.90;;;;;;;17.47;100.00;94253.69;5010791;28;20171;-54
2023/10/30 09:12:17;;;;;;;1999.90;999.90;;;;;;;17.98;100.00;94245.78;5011690;28;20171;-56
2023/10/30 09:14:42;;;;;;;1999.90;999.90;;;;;;;17.48;100.00;94252.47;5011174;28;20239;-56
2023/10/30 09:17:08;;;;;;;1999.90;999.90;;;;;;;17.03;100.00;94253.59;5010646;28;20183;-57
2023/10/30 09:19:35;;;;;;;1999.90;999.90;;;;;;;16.84;100.00;94265.25;5011287;28;20194;-57
2023/10/30 09:22:00;;;;;;;1999.90;999.90;;;;;;;16.47;100.00;94258.44;5011105;28;20478;-56
2023/10/30 09:24:26;;;;;;;1999.90;999.90;;;;;;;16.14;100.00;94259.19;5010626;28;20178;-53
2023/10/30 09:26:52;;;;;;;1999.90;999.90;;;;;;;16.19;100.00;94250.31;5011147;28;20176;-56
2023/10/30 09:29:17;;;;;;;1999.90;999.90;;;;;;;16.14;100.00;94239.91;5010596;28;20175;-55
2023/10/30 09:31:44;;;;;;;1999.90;999.90;;;;;;;16.60;100.00;94240.44;5010459;28;20242;-56
2023/10/30 09:34:12;;;;;;;1999.90;999.90;;;;;;;16.90;100.00;94241.31;5011352;28;20183;-56
2023/10/30 09:36:37;;;;;;;1999.90;999.90;;;;;;;16.67;100.00;94239.34;5010305;28;20182;-55
2023/10/30 09:39:03;;;;;;;1999.90;999.90;;;;;;;16.66;100.00;94241.34;5010353;28;20195;-56
2023/10/30 09:41:29;;;;;;;1999.90;999.90;;;;;;;16.03;100.00;94239.66;5010147;28;20249;-57
2023/10/30 09:43:56;;;;;;;1999.90;999.90;;;;;;;16.00;100.00;94237.84;5010704;28;20550;-55
2023/10/30 09:46:29;;;;;;;1999.90;999.90;;;;;;;16.27;100.00;94228.69;5010190;28;20172;-57
2023/10/30 09:48:56;;;;;;;1999.90;999.90;;;;;;;16.52;100.00;94227.47;5010698;28;20233;-56
2023/10/30 09:51:22;;;;;;;1999.90;999.90;;;;;;;16.71;100.00;94223.38;5010499;28;20174;-54
2023/10/30 09:53:49;;;;;;;1999.90;999.90;;;;;;;17.11;100.00;94218.16;5010174;28;20202;-56
2023/10/30 09:56:16;;;;;;;1999.90;999.90;;;;;;;16.93;100.00;94210.03;5010030;28;20167;-57
2023/10/30 09:58:41;;;;;;;1999.90;999.90;;;;;;;17.28;100.00;94213.69;5010231;28;20174;-56
2023/10/30 10:01:06;;;;;;;1999.90;999.90;;;;;;;17.51;100.00;94196.28;5009898;28;20167;-57
2023/10/30 10:03:32;;;;;;;1999.90;999.90;;;;;;;17.96;100.00;94195.78;5009736;28;20199;-56
2023/10/30 10:05:59;;;;;;;1999.90;999.90;;;;;;;18.27;100.00;94193.19;5010346;28;20167;-57
2023/10/30 10:08:25;;;;;;;1999.90;999.90;;;;;;;17.76;100.00;94177.13;5009738;28;20163;-57
2023/10/30 10:10:59;;;;;;;1999.90;999.90;;;;;;;17.86;100.00;94188.81;5009674;28;20172;-55
2023/10/30 10:13:26;;;;;;;1999.90;999.90;;;;;;;17.83;100.00;94168.47;5010433;28;20178;-56
2023/10/30 10:15:52;;;;;;;1999.90;999.90;;;;;;;17.94;100.00;94160.34;5009739;28;20171;-56
2023/10/30 10:18:24;;;;;;;1999.90;999.90;;;;;;;18.07;100.00;94154.50;5009652;28;20174;-57
2023/10/30 10:20:58;;;;;;;1999.90;999.90;;;;;;;17.71;100.00;94149.44;5010101;28;20180;-55
2023/10/30 10:23:24;;;;;;;1999.90;999.90;;;;;;;18.08;100.00;94144.94;5009745;28;20508;-57
2023/10/30 10:25:57;;;;;;;1999.90;999.90;;;;;;;17.49;100.00;94143.56;5009400;28;20254;-54
2023/10/30 10:28:26;;;;;;;1999.90;999.90;;;;;;;17.37;100.00;94136.31;5009423;28;20171;-58
2023/10/30 10:30:53;;;;;;;1999.90;999.90;;;;;;;17.22;100.00;94141.09;5009990;28;20175;-57
2023/10/30 10:33:23;;;;;;;1999.90;999.90;;;;;;;17.17;100.00;94133.47;5009310;28;20202;-56
2023/10/30 10:35:55;;;;;;;1999.90;999.90;;;;;;;16.89;100.00;94146.75;5009298;28;20182;-55
2023/10/30 10:38:21;;;;;;;1999.90;999.90;;;;;;;17.18;100.00;94140.50;5009579;28;20176;-57
2023/10/30 10:40:47;;;;;;;1999.90;999.90;;;;;;;17.01;100.00;94131.94;5008924;28;20245;-56
2023/10/30 10:43:21;;;;;;;1999.90;999.90;;;;;;;17.09;100.00;94132.31;5009552;28;20218;-57
2023/10/30 10:45:51;;;;;;;1999.90;999.90;;;;;;;17.06;100.00;94114.72;5009708;28;20177;-57